In Rescue
 
Open Full Screen Window  High Contrast Mode
Wind Gusting 00 knots
10
August 09, 2020 5:35 PM CDT
Weather Information
Wind Direction
  210 °
Wind Speed
  10 kt (12 mph)
Wind Gust
  00 kt (0 mph)
Altimeter
29.80 in
Visibility
10 SM
Temperature
28° C
82° F
Dewpoint
21° C
70° F
Humidity
66%
1hr Rain Fall
00.00 in.
24hr Rain Fall
00.04 in.
Sky Condition
Scattered @ 3,900 ft
VFR

METAR K21D 092235Z AUTO 21010KT 10SM SCT039 28/21 A2980 RMK AO2

FAA Disclaimer: The data displayed is for advisory purposes only and is not to be used for flight planning or operations.